Time;durP1;ratioP1;P1;durP2;ratioP2;P2;SDS_P1;SDS_P2;PMS_P1;PMS_P2;Temp;Humidity;BMP_temperature;BMP_pressure;BME280_temperature;BME280_humidity;BME280_pressure;Samples;Min_cycle;Max_cycle;Signal;HPM_P1;HPM_P2
2022/03/03 00:00:32;;;;;;;14.03;6.67;;;;;2.00;101513.00;;;;4899975;29;20604;-68
2022/03/03 00:03:18;;;;;;;13.90;6.53;;;;;2.00;101513.00;;;;4897698;29;21367;-68
2022/03/03 00:06:04;;;;;;;10.10;6.03;;;;;2.00;101521.00;;;;4897736;29;20372;-68
2022/03/03 00:08:50;;;;;;;12.90;6.60;;;;;2.00;101525.00;;;;4895175;29;20625;-68
2022/03/03 00:11:38;;;;;;;12.17;6.40;;;;;2.10;101514.00;;;;4900571;29;20610;-68
2022/03/03 00:14:25;;;;;;;9.93;6.10;;;;;2.10;101524.00;;;;4893886;29;20259;-68
2022/03/03 00:17:12;;;;;;;18.03;6.63;;;;;2.20;101526.00;;;;4895751;29;20262;-67
2022/03/03 00:19:58;;;;;;;14.37;6.50;;;;;2.20;101532.00;;;;4903167;29;20233;-67
2022/03/03 00:22:44;;;;;;;16.17;7.63;;;;;2.20;101526.00;;;;4897241;29;20248;-65
2022/03/03 00:25:31;;;;;;;16.37;7.40;;;;;2.20;101518.00;;;;4893696;29;20625;-67
2022/03/03 00:28:17;;;;;;;17.27;7.53;;;;;2.30;101522.00;;;;4902637;29;20313;-68
2022/03/03 00:31:05;;;;;;;16.23;7.30;;;;;2.20;101531.00;;;;4893462;29;20350;-65
2022/03/03 00:33:51;;;;;;;15.97;7.43;;;;;2.10;101524.00;;;;4898420;29;20252;-68
2022/03/03 00:36:38;;;;;;;13.77;7.63;;;;;2.10;101527.00;;;;4900024;29;20241;-67
2022/03/03 00:39:24;;;;;;;13.83;6.70;;;;;2.00;101524.00;;;;4906048;29;20289;-67
2022/03/03 00:42:10;;;;;;;11.93;6.73;;;;;2.10;101520.00;;;;4895997;29;20314;-68
2022/03/03 00:44:57;;;;;;;14.70;6.93;;;;;2.20;101515.00;;;;4901198;29;20249;-67
2022/03/03 00:47:45;;;;;;;15.90;8.27;;;;;2.10;101518.00;;;;4890703;29;20246;-68
2022/03/03 00:50:32;;;;;;;13.80;6.60;;;;;2.00;101516.00;;;;4906315;29;20725;-67
2022/03/03 00:53:19;;;;;;;13.20;6.97;;;;;2.00;101518.00;;;;4900810;29;20270;-68
2022/03/03 00:56:06;;;;;;;15.70;7.00;;;;;2.00;101503.00;;;;4895047;29;20242;-67
2022/03/03 00:58:52;;;;;;;14.23;6.90;;;;;2.00;101512.00;;;;4897845;29;20713;-67
2022/03/03 01:01:38;;;;;;;14.30;6.53;;;;;1.90;101515.00;;;;4903157;29;20266;-68
2022/03/03 01:04:26;;;;;;;15.50;6.80;;;;;1.70;101508.00;;;;4900826;29;20857;-68
2022/03/03 01:07:12;;;;;;;11.13;6.37;;;;;1.70;101514.00;;;;4892239;29;20229;-69
2022/03/03 01:09:59;;;;;;;22.93;7.13;;;;;1.80;101510.00;;;;4899979;29;20361;-69
2022/03/03 01:12:45;;;;;;;13.77;6.97;;;;;1.80;101514.00;;;;4902285;29;20234;-66
2022/03/03 01:15:31;;;;;;;12.10;6.73;;;;;1.70;101504.00;;;;4902847;29;20229;-69
2022/03/03 01:18:18;;;;;;;13.83;7.20;;;;;1.60;101496.00;;;;4901838;29;20235;-68
2022/03/03 01:21:05;;;;;;;16.90;6.67;;;;;1.60;101496.00;;;;4899603;29;20224;-67
2022/03/03 01:23:51;;;;;;;12.30;6.60;;;;;1.50;101488.00;;;;4903044;29;20230;-67
2022/03/03 01:26:38;;;;;;;12.87;7.07;;;;;1.50;101486.00;;;;4905545;29;20233;-66
2022/03/03 01:29:24;;;;;;;15.33;7.67;;;;;1.40;101487.00;;;;4898395;29;20350;-66
2022/03/03 01:32:11;;;;;;;12.07;6.20;;;;;1.40;101481.00;;;;4895830;29;20222;-67
2022/03/03 01:34:57;;;;;;;14.63;7.40;;;;;1.50;101492.00;;;;4893833;29;20237;-67
2022/03/03 01:37:46;;;;;;;16.23;7.30;;;;;1.50;101485.00;;;;4892437;29;20242;-68
2022/03/03 01:40:33;;;;;;;14.53;6.17;;;;;1.30;101478.00;;;;4899322;29;20278;-67
2022/03/03 01:43:19;;;;;;;15.80;6.97;;;;;1.50;101490.00;;;;4905777;29;20700;-67
2022/03/03 01:46:06;;;;;;;14.13;7.50;;;;;1.50;101495.00;;;;4899224;29;20233;-68
2022/03/03 01:48:53;;;;;;;16.97;7.87;;;;;1.20;101471.00;;;;4899162;29;20593;-67
2022/03/03 01:51:39;;;;;;;13.33;7.40;;;;;1.40;101474.00;;;;4900521;29;20233;-68
2022/03/03 01:54:27;;;;;;;16.00;7.93;;;;;1.40;101473.00;;;;4903752;29;20257;-67
2022/03/03 01:57:16;;;;;;;12.13;6.77;;;;;1.40;101472.00;;;;4898192;29;20310;-67
2022/03/03 02:00:04;;;;;;;12.77;6.47;;;;;1.20;101469.00;;;;4907111;29;20624;-66
2022/03/03 02:02:50;;;;;;;14.40;7.37;;;;;1.10;101463.00;;;;4899599;29;20241;-66
2022/03/03 02:05:36;;;;;;;11.53;6.37;;;;;1.20;101455.00;;;;4892090;29;20304;-67
2022/03/03 02:08:23;;;;;;;13.77;6.63;;;;;1.20;101460.00;;;;4898148;29;20259;-67
2022/03/03 02:11:11;;;;;;;11.87;6.77;;;;;1.10;101407.00;;;;4895062;29;20781;-67
2022/03/03 02:13:58;;;;;;;9.47;5.73;;;;;1.10;101465.00;;;;4894322;29;20253;-67
2022/03/03 02:16:45;;;;;;;13.83;6.77;;;;;0.90;101469.00;;;;4891473;29;20286;-67
2022/03/03 02:19:31;;;;;;;13.83;6.27;;;;;1.10;101464.00;;;;4902090;29;20257;-67
2022/03/03 02:22:18;;;;;;;13.13;6.80;;;;;1.10;101454.00;;;;4904403;29;20224;-67
2022/03/03 02:25:05;;;;;;;16.43;7.47;;;;;1.10;101456.00;;;;4894580;29;20355;-68
2022/03/03 02:27:51;;;;;;;12.93;6.53;;;;;1.00;101448.00;;;;4894782;29;20249;-67
2022/03/03 02:30:38;;;;;;;13.20;7.40;;;;;0.90;101450.00;;;;4897852;29;20831;-67
2022/03/03 02:33:24;;;;;;;15.20;7.87;;;;;0.90;101454.00;;;;4891767;29;20233;-68
2022/03/03 02:36:17;;;;;;;15.83;7.60;;;;;0.90;101438.00;;;;4898874;29;20241;-65
2022/03/03 02:39:11;;;;;;;17.03;7.57;;;;;1.00;101444.00;;;;4898592;29;20242;-66
2022/03/03 02:41:58;;;;;;;15.90;8.00;;;;;0.90;101435.00;;;;4896370;29;20245;-66
2022/03/03 02:44:47;;;;;;;13.07;7.33;;;;;1.00;101438.00;;;;4905976;29;20233;-66
2022/03/03 02:47:33;;;;;;;13.67;7.33;;;;;0.90;101437.00;;;;4895719;29;20230;-64
2022/03/03 02:50:22;;;;;;;12.60;6.60;;;;;0.90;101430.00;;;;4905173;29;20273;-67
2022/03/03 02:53:09;;;;;;;14.80;6.47;;;;;0.90;101430.00;;;;4900607;29;20248;-67
2022/03/03 02:55:56;;;;;;;14.67;7.47;;;;;0.80;101427.00;;;;4893496;29;20266;-67
2022/03/03 02:58:43;;;;;;;12.47;7.27;;;;;0.80;101416.00;;;;4892375;29;20310;-68
2022/03/03 03:01:29;;;;;;;14.27;7.30;;;;;0.70;101414.00;;;;4890407;29;20762;-65
2022/03/03 03:04:16;;;;;;;13.43;7.00;;;;;0.60;101407.00;;;;4903139;29;20232;-67
2022/03/03 03:07:03;;;;;;;12.87;6.50;;;;;0.80;101415.00;;;;4898025;29;20228;-67
2022/03/03 03:09:49;;;;;;;16.13;7.47;;;;;0.70;101407.00;;;;4892509;29;20398;-67
2022/03/03 03:12:37;;;;;;;13.53;7.27;;;;;0.60;101409.00;;;;4901318;29;20230;-67
2022/03/03 03:15:24;;;;;;;14.33;7.77;;;;;0.60;101419.00;;;;4890756;29;20246;-66
2022/03/03 03:18:12;;;;;;;15.13;6.83;;;;;0.70;101392.00;;;;4897253;29;20298;-66
2022/03/03 03:20:58;;;;;;;15.90;7.10;;;;;0.70;101392.00;;;;4906844;29;20237;-67
2022/03/03 03:23:44;;;;;;;17.33;8.40;;;;;0.60;101346.00;;;;4894283;29;20238;-66
2022/03/03 03:26:31;;;;;;;12.57;6.80;;;;;0.50;101408.00;;;;4899533;29;20294;-67
2022/03/03 03:29:18;;;;;;;16.00;7.83;;;;;0.60;101405.00;;;;4896121;29;20376;-67
2022/03/03 03:32:05;;;;;;;14.17;7.27;;;;;0.50;101411.00;;;;4893548;29;20237;-64
2022/03/03 03:34:51;;;;;;;14.83;8.40;;;;;0.60;101410.00;;;;4891052;29;20246;-66
2022/03/03 03:37:38;;;;;;;13.80;7.90;;;;;0.40;101398.00;;;;4892625;29;20369;-67
2022/03/03 03:40:24;;;;;;;14.27;7.53;;;;;0.40;101395.00;;;;4903676;29;20804;-67
2022/03/03 03:43:11;;;;;;;15.97;7.43;;;;;0.40;101394.00;;;;4890353;29;20714;-68
2022/03/03 03:45:58;;;;;;;13.57;7.30;;;;;0.40;101387.00;;;;4897912;29;20299;-67
2022/03/03 03:48:45;;;;;;;17.27;8.50;;;;;0.30;101375.00;;;;4895323;29;20330;-68
2022/03/03 03:51:31;;;;;;;18.20;7.80;;;;;0.30;101374.00;;;;4898345;29;20237;-67
2022/03/03 03:54:17;;;;;;;11.70;7.63;;;;;0.30;101375.00;;;;4903291;29;20278;-68
2022/03/03 03:57:04;;;;;;;14.83;7.20;;;;;0.40;101369.00;;;;4900339;29;20233;-68
2022/03/03 03:59:50;;;;;;;13.50;7.10;;;;;0.30;101371.00;;;;4890777;29;20250;-66
2022/03/03 04:02:38;;;;;;;15.20;7.97;;;;;0.40;101385.00;;;;4901104;29;20230;-67
2022/03/03 04:05:24;;;;;;;18.13;7.93;;;;;0.50;101378.00;;;;4901942;29;20363;-65
2022/03/03 04:08:11;;;;;;;14.10;7.27;;;;;0.30;101375.00;;;;4891857;29;20238;-68
2022/03/03 04:10:57;;;;;;;19.00;7.77;;;;;0.30;101378.00;;;;4890634;29;20278;-67
2022/03/03 04:13:43;;;;;;;14.03;6.80;;;;;0.30;101377.00;;;;4900638;29;20250;-67
2022/03/03 04:16:30;;;;;;;16.77;8.10;;;;;0.30;101372.00;;;;4890901;29;20269;-67
2022/03/03 04:19:19;;;;;;;19.20;8.87;;;;;0.30;101362.00;;;;4903699;29;20375;-68
2022/03/03 04:22:05;;;;;;;15.20;7.40;;;;;0.30;101361.00;;;;4895910;29;20238;-66
2022/03/03 04:24:51;;;;;;;16.20;8.13;;;;;0.20;101358.00;;;;4896526;29;20234;-68
2022/03/03 04:27:38;;;;;;;14.67;7.60;;;;;0.20;101375.00;;;;4893814;29;20237;-67
2022/03/03 04:30:24;;;;;;;16.13;7.73;;;;;0.20;101374.00;;;;4896973;29;20224;-66
2022/03/03 04:33:11;;;;;;;18.33;8.47;;;;;0.10;101369.00;;;;4896888;29;20724;-66
2022/03/03 04:36:05;;;;;;;14.80;7.40;;;;;0.20;101367.00;;;;4898374;29;20305;-67
2022/03/03 04:38:51;;;;;;;18.20;8.03;;;;;0.10;101366.00;;;;4904963;29;20362;-67
2022/03/03 04:41:37;;;;;;;15.57;7.60;;;;;0.20;101387.00;;;;4893603;29;20297;-67
2022/03/03 04:44:23;;;;;;;14.43;7.20;;;;;0.10;101369.00;;;;4893301;29;20234;-66
2022/03/03 04:47:10;;;;;;;15.13;8.57;;;;;0.10;101370.00;;;;4903031;29;20587;-66
2022/03/03 04:49:56;;;;;;;19.40;8.77;;;;;0.20;101368.00;;;;4900391;29;20229;-68
2022/03/03 04:52:44;;;;;;;14.30;7.93;;;;;0.00;101365.00;;;;4893475;29;20725;-68
2022/03/03 04:55:30;;;;;;;16.57;8.57;;;;;0.10;101363.00;;;;4900923;29;20226;-68
2022/03/03 04:58:16;;;;;;;19.70;7.80;;;;;0.00;101368.00;;;;4897361;29;20318;-67
2022/03/03 05:01:03;;;;;;;14.97;7.30;;;;;0.00;101360.00;;;;4895418;29;20265;-68
2022/03/03 05:03:49;;;;;;;16.67;8.60;;;;;0.20;101358.00;;;;4901249;29;20752;-69
2022/03/03 05:06:35;;;;;;;14.07;7.63;;;;;0.00;101348.00;;;;4892675;29;20241;-67
2022/03/03 05:09:23;;;;;;;17.03;8.63;;;;;0.00;101360.00;;;;4899513;29;20238;-69
2022/03/03 05:12:10;;;;;;;11.07;6.63;;;;;-0.10;101362.00;;;;4893755;29;20250;-68
2022/03/03 05:14:57;;;;;;;16.03;7.07;;;;;0.00;101361.00;;;;4896390;29;20310;-69
2022/03/03 05:17:43;;;;;;;17.33;7.67;;;;;0.00;101349.00;;;;4892803;29;20881;-68
2022/03/03 05:20:30;;;;;;;16.00;8.23;;;;;-0.10;101356.00;;;;4902982;29;20732;-67
2022/03/03 05:23:16;;;;;;;20.27;7.67;;;;;-0.10;101352.00;;;;4893852;29;20305;-68
2022/03/03 05:26:04;;;;;;;16.50;7.97;;;;;-0.20;101345.00;;;;4894550;29;20348;-69
2022/03/03 05:28:50;;;;;;;13.27;7.40;;;;;0.00;101349.00;;;;4896435;29;20814;-68
2022/03/03 05:31:37;;;;;;;21.20;9.07;;;;;-0.10;101352.00;;;;4892711;29;20884;-68
2022/03/03 05:34:24;;;;;;;15.10;8.13;;;;;-0.10;101347.00;;;;4892310;29;20311;-68
2022/03/03 05:37:10;;;;;;;12.73;7.43;;;;;-0.10;101346.00;;;;4894117;29;20245;-70
2022/03/03 05:39:56;;;;;;;14.57;7.67;;;;;-0.10;101357.00;;;;4904178;29;20770;-69
2022/03/03 05:42:44;;;;;;;18.20;8.07;;;;;-0.10;101348.00;;;;4905666;29;20316;-69
2022/03/03 05:45:33;;;;;;;20.67;8.63;;;;;-0.10;101352.00;;;;4903254;29;20259;-67
2022/03/03 05:48:20;;;;;;;17.27;9.23;;;;;0.00;101357.00;;;;4900848;29;20268;-69
2022/03/03 05:51:06;;;;;;;24.33;11.40;;;;;-0.10;101352.00;;;;4907314;29;20252;-69
2022/03/03 05:53:54;;;;;;;22.70;10.10;;;;;-0.10;101360.00;;;;4903134;29;20234;-68
2022/03/03 05:56:45;;;;;;;17.93;9.27;;;;;-0.10;101355.00;;;;4910695;29;20612;-68
2022/03/03 05:59:33;;;;;;;17.67;9.33;;;;;-0.10;101363.00;;;;4894338;29;20371;-69
2022/03/03 06:02:21;;;;;;;24.90;10.23;;;;;-0.10;101370.00;;;;4899704;29;20254;-69
2022/03/03 06:05:09;;;;;;;18.70;9.23;;;;;0.00;101360.00;;;;4901438;29;20229;-67
2022/03/03 06:08:03;;;;;;;18.63;8.13;;;;;-0.10;101360.00;;;;4904013;29;20314;-68
2022/03/03 06:10:52;;;;;;;16.90;9.33;;;;;-0.10;101367.00;;;;4902035;29;20234;-68
2022/03/03 06:13:42;;;;;;;20.63;9.17;;;;;0.10;101366.00;;;;4904424;29;20721;-69
2022/03/03 06:16:32;;;;;;;16.00;8.77;;;;;0.10;101349.00;;;;4907264;29;20237;-68
2022/03/03 06:19:20;;;;;;;17.30;8.83;;;;;0.30;101355.00;;;;4890994;29;20233;-69
2022/03/03 06:22:07;;;;;;;16.00;8.53;;;;;0.20;101351.00;;;;4910501;29;20254;-68
2022/03/03 06:24:53;;;;;;;19.50;9.00;;;;;0.20;101356.00;;;;4900346;29;20241;-70
2022/03/03 06:27:45;;;;;;;16.97;9.40;;;;;0.20;101344.00;;;;4891913;29;20238;-69
2022/03/03 06:30:32;;;;;;;19.63;9.67;;;;;0.30;101340.00;;;;4894926;29;20608;-69
2022/03/03 06:33:20;;;;;;;14.77;9.00;;;;;0.30;101342.00;;;;4891335;29;20238;-67
2022/03/03 06:36:06;;;;;;;18.60;8.30;;;;;0.30;101334.00;;;;4891384;29;20246;-68
2022/03/03 06:38:53;;;;;;;18.40;8.90;;;;;0.40;101339.00;;;;4892750;29;20237;-70
2022/03/03 06:41:39;;;;;;;18.80;9.70;;;;;0.40;101352.00;;;;4899793;29;20729;-69
2022/03/03 06:44:25;;;;;;;19.07;9.73;;;;;0.40;101351.00;;;;4891134;29;20241;-69
2022/03/03 06:47:12;;;;;;;23.40;11.33;;;;;0.60;101351.00;;;;4891572;29;20362;-68
2022/03/03 06:49:59;;;;;;;19.93;9.87;;;;;0.50;101342.00;;;;4902133;29;20793;-70
2022/03/03 06:52:48;;;;;;;17.93;9.13;;;;;0.50;101351.00;;;;4896233;29;20732;-69
2022/03/03 06:55:35;;;;;;;17.03;9.03;;;;;0.50;101345.00;;;;4891154;29;20230;-70
2022/03/03 06:58:25;;;;;;;20.07;8.90;;;;;0.60;101357.00;;;;4891001;29;20322;-69
2022/03/03 07:01:13;;;;;;;18.07;10.20;;;;;0.70;101348.00;;;;4890797;29;20617;-68
2022/03/03 07:03:59;;;;;;;16.80;8.93;;;;;0.70;101368.00;;;;4893173;29;20237;-69
2022/03/03 07:06:48;;;;;;;18.03;8.90;;;;;0.90;101368.00;;;;4890889;29;20238;-68
2022/03/03 07:09:35;;;;;;;18.67;9.57;;;;;1.00;101374.00;;;;4894523;29;20241;-69
2022/03/03 07:12:22;;;;;;;18.50;9.33;;;;;0.90;101367.00;;;;4896515;29;20377;-68
2022/03/03 07:15:10;;;;;;;17.57;9.20;;;;;1.00;101375.00;;;;4903562;29;20229;-70
2022/03/03 07:18:03;;;;;;;20.03;9.33;;;;;1.00;101374.00;;;;4925535;29;20616;-70
2022/03/03 07:20:58;;;;;;;15.57;9.30;;;;;1.00;101376.00;;;;4916654;29;20745;-69
2022/03/03 07:23:49;;;;;;;14.80;8.13;;;;;1.00;101378.00;;;;4898209;29;20290;-69
2022/03/03 07:26:38;;;;;;;16.57;8.40;;;;;1.10;101377.00;;;;4905984;29;20242;-68
2022/03/03 07:29:26;;;;;;;21.90;9.97;;;;;1.30;101365.00;;;;4899439;29;20252;-68
2022/03/03 07:32:17;;;;;;;19.53;9.60;;;;;1.20;101386.00;;;;4898776;29;20241;-69
2022/03/03 07:35:06;;;;;;;17.27;8.83;;;;;1.30;101381.00;;;;4898942;29;20244;-69
2022/03/03 07:37:57;;;;;;;18.10;8.80;;;;;1.30;101390.00;;;;4905901;29;20381;-67
2022/03/03 07:40:44;;;;;;;16.03;8.03;;;;;1.30;101390.00;;;;4913019;29;20256;-67
2022/03/03 07:43:31;;;;;;;19.83;9.93;;;;;1.50;101389.00;;;;4903967;29;20286;-67
2022/03/03 07:46:18;;;;;;;20.97;10.20;;;;;1.50;101385.00;;;;4906528;29;20240;-68
2022/03/03 07:49:04;;;;;;;19.10;9.70;;;;;1.60;101387.00;;;;4901420;29;20381;-70
2022/03/03 07:51:51;;;;;;;19.40;9.33;;;;;1.80;101388.00;;;;4899012;29;20363;-67
2022/03/03 07:54:37;;;;;;;20.27;10.00;;;;;1.80;101388.00;;;;4902131;29;20237;-68
2022/03/03 07:57:34;;;;;;;19.93;8.37;;;;;1.80;101372.00;;;;4902973;29;20281;-67
2022/03/03 08:00:21;;;;;;;19.97;9.33;;;;;1.90;101393.00;;;;4901357;29;20742;-69
2022/03/03 08:03:09;;;;;;;18.20;9.03;;;;;1.80;101388.00;;;;4896042;29;20230;-68
2022/03/03 08:05:58;;;;;;;19.87;9.00;;;;;2.00;101395.00;;;;4895899;29;20291;-66
2022/03/03 08:08:45;;;;;;;17.50;8.77;;;;;2.00;101386.00;;;;4901886;29;20330;-64
2022/03/03 08:11:32;;;;;;;20.27;9.10;;;;;2.20;101395.00;;;;4901136;29;20237;-66
2022/03/03 08:14:21;;;;;;;17.03;9.07;;;;;2.40;101400.00;;;;4898378;29;20315;-66
2022/03/03 08:17:09;;;;;;;16.80;8.43;;;;;2.50;101394.00;;;;4904608;29;20749;-65
2022/03/03 08:19:56;;;;;;;19.50;9.13;;;;;2.50;101387.00;;;;4903702;29;21026;-67
2022/03/03 08:22:43;;;;;;;27.27;9.53;;;;;2.60;101387.00;;;;4894054;29;20294;-68
2022/03/03 08:25:30;;;;;;;21.57;8.70;;;;;2.80;101378.00;;;;4895447;29;20242;-67
2022/03/03 08:28:17;;;;;;;16.70;8.80;;;;;2.70;101393.00;;;;4904077;29;20241;-68
2022/03/03 08:31:06;;;;;;;18.27;9.67;;;;;2.60;101387.00;;;;4901573;29;20379;-67
2022/03/03 08:33:57;;;;;;;17.70;9.73;;;;;2.80;101386.00;;;;4901371;29;20652;-67
2022/03/03 08:36:46;;;;;;;21.83;10.43;;;;;2.80;101382.00;;;;4893407;29;20241;-66
2022/03/03 08:39:38;;;;;;;19.33;9.33;;;;;3.00;101380.00;;;;4893121;29;20243;-63
2022/03/03 08:42:27;;;;;;;18.77;9.60;;;;;3.10;101381.00;;;;4911143;29;20390;-69
2022/03/03 08:45:13;;;;;;;15.93;8.97;;;;;3.30;101385.00;;;;4896525;29;20237;-64
2022/03/03 08:48:06;;;;;;;18.97;10.10;;;;;3.40;101384.00;;;;4905813;29;20243;-67
2022/03/03 08:50:53;;;;;;;18.90;10.40;;;;;3.50;101381.00;;;;4900870;29;20241;-67
2022/03/03 08:53:41;;;;;;;18.47;9.50;;;;;3.60;101374.00;;;;4893385;29;20361;-67
2022/03/03 08:57:02;;;;;;;18.77;8.77;;;;;3.70;101374.00;;;;4892584;29;20285;-67
2022/03/03 09:00:07;;;;;;;16.87;9.43;;;;;3.90;101382.00;;;;4898145;29;20239;-68
2022/03/03 09:03:27;;;;;;;21.10;9.20;;;;;4.20;101381.00;;;;4866768;29;20981;-67
2022/03/03 09:06:44;;;;;;;18.27;9.23;;;;;4.40;101367.00;;;;4900888;29;20304;-67
2022/03/03 09:10:08;;;;;;;16.73;8.63;;;;;4.70;101379.00;;;;4903544;29;20237;-67
2022/03/03 09:13:31;;;;;;;21.40;9.87;;;;;4.80;101377.00;;;;4862403;29;20713;-67
2022/03/03 09:16:26;;;;;;;16.47;8.67;;;;;5.10;101372.00;;;;4897314;29;20242;-67
2022/03/03 09:19:13;;;;;;;19.37;9.73;;;;;5.20;101378.00;;;;4891352;29;20321;-68
2022/03/03 09:22:00;;;;;;;16.90;8.87;;;;;5.20;101375.00;;;;4897743;29;20234;-66
2022/03/03 09:24:47;;;;;;;17.07;8.77;;;;;5.50;101368.00;;;;4892627;29;20237;-67
2022/03/03 09:27:34;;;;;;;23.27;9.90;;;;;5.50;101362.00;;;;4899763;29;20774;-67
2022/03/03 09:30:21;;;;;;;17.87;9.03;;;;;5.60;101369.00;;;;4892812;29;20249;-68
2022/03/03 09:33:09;;;;;;;18.70;9.13;;;;;5.80;101366.00;;;;4898019;29;20371;-68
2022/03/03 09:35:55;;;;;;;14.73;8.93;;;;;5.80;101349.00;;;;4897299;29;20605;-67
2022/03/03 09:38:42;;;;;;;20.27;9.97;;;;;6.00;101360.00;;;;4898306;29;20241;-67
2022/03/03 09:41:32;;;;;;;16.63;9.33;;;;;6.30;101348.00;;;;4901932;29;20381;-68
2022/03/03 09:44:21;;;;;;;18.90;9.70;;;;;6.30;101351.00;;;;4903019;29;20237;-68
2022/03/03 09:47:08;;;;;;;16.93;9.17;;;;;6.50;101346.00;;;;4894607;29;20796;-66
2022/03/03 09:49:56;;;;;;;18.53;9.50;;;;;6.70;101351.00;;;;4902296;29;20241;-70
2022/03/03 09:52:45;;;;;;;18.60;10.27;;;;;6.80;101360.00;;;;4899635;29;20239;-68
2022/03/03 09:55:31;;;;;;;18.17;9.57;;;;;7.10;101355.00;;;;4902703;29;20233;-66
2022/03/03 09:58:18;;;;;;;17.53;9.33;;;;;7.20;101358.00;;;;4895609;29;20728;-66
2022/03/03 10:01:04;;;;;;;15.73;8.50;;;;;7.30;101358.00;;;;4900012;29;20237;-66
2022/03/03 10:03:50;;;;;;;21.37;8.13;;;;;7.40;101355.00;;;;4903052;29;20233;-68
2022/03/03 10:06:42;;;;;;;14.47;8.40;;;;;7.60;101356.00;;;;4901289;29;20245;-67
2022/03/03 10:09:28;;;;;;;17.50;8.70;;;;;7.90;101350.00;;;;4895719;29;20348;-66
2022/03/03 10:12:14;;;;;;;15.47;8.47;;;;;8.00;101357.00;;;;4903244;29;20229;-69
2022/03/03 10:15:00;;;;;;;17.53;8.83;;;;;8.20;101349.00;;;;4899144;29;20741;-66
2022/03/03 10:17:47;;;;;;;16.47;8.77;;;;;8.30;101355.00;;;;4900973;29;20239;-69
2022/03/03 10:20:38;;;;;;;17.20;9.30;;;;;8.40;101346.00;;;;4900324;29;20233;-63
2022/03/03 10:23:29;;;;;;;18.10;8.10;;;;;8.50;101358.00;;;;4895171;29;20247;-66
2022/03/03 10:26:15;;;;;;;15.47;9.33;;;;;8.40;101345.00;;;;4896801;29;20309;-67
2022/03/03 10:29:01;;;;;;;15.53;7.67;;;;;8.60;101341.00;;;;4902237;29;20272;-67
2022/03/03 10:31:49;;;;;;;12.43;7.73;;;;;8.60;101351.00;;;;4901737;29;20229;-69
2022/03/03 10:34:38;;;;;;;17.93;9.60;;;;;8.60;101350.00;;;;4903004;29;20239;-68
2022/03/03 10:37:24;;;;;;;16.40;8.53;;;;;8.80;101347.00;;;;4901132;29;20617;-68
2022/03/03 10:40:14;;;;;;;20.63;9.27;;;;;8.90;101347.00;;;;4897446;29;20243;-70
2022/03/03 10:43:01;;;;;;;14.07;8.73;;;;;9.10;101351.00;;;;4904298;29;20261;-69
2022/03/03 10:45:54;;;;;;;16.53;9.37;;;;;9.20;101349.00;;;;4888639;29;20225;-67
2022/03/03 10:48:41;;;;;;;15.83;9.10;;;;;9.30;101359.00;;;;4899457;29;20240;-68
2022/03/03 10:51:27;;;;;;;14.93;8.77;;;;;9.30;101362.00;;;;4897525;29;20751;-67
2022/03/03 10:54:13;;;;;;;15.90;9.33;;;;;9.50;101348.00;;;;4898027;29;20236;-68
2022/03/03 10:57:38;;;;;;;20.27;9.13;;;;;9.80;101352.00;;;;4897212;29;20240;-66
2022/03/03 11:00:26;;;;;;;16.07;9.10;;;;;9.70;101356.00;;;;4898570;29;20238;-68
2022/03/03 11:03:12;;;;;;;18.23;8.67;;;;;9.90;101357.00;;;;4893862;29;20240;-67
2022/03/03 11:05:59;;;;;;;19.57;9.13;;;;;10.00;101350.00;;;;4890934;29;20313;-69
2022/03/03 11:08:50;;;;;;;15.03;8.93;;;;;10.10;101355.00;;;;4894100;29;20229;-68
2022/03/03 11:11:37;;;;;;;18.00;9.37;;;;;10.30;101366.00;;;;4894249;29;20590;-68
2022/03/03 11:14:25;;;;;;;16.73;9.37;;;;;10.50;101346.00;;;;4894969;29;20249;-68
2022/03/03 11:17:31;;;;;;;15.43;8.97;;;;;10.50;101371.00;;;;4891637;29;20252;-70
2022/03/03 11:20:19;;;;;;;15.87;9.17;;;;;10.60;101347.00;;;;4894151;29;20236;-70
2022/03/03 11:23:06;;;;;;;30.70;13.43;;;;;10.70;101352.00;;;;4890522;29;20238;-68
2022/03/03 11:25:53;;;;;;;41.73;15.73;;;;;10.70;101360.00;;;;4891677;29;20830;-69
2022/03/03 11:28:39;;;;;;;23.40;12.33;;;;;10.90;101346.00;;;;4898703;29;20257;-70
2022/03/03 11:31:30;;;;;;;18.60;10.10;;;;;10.80;101347.00;;;;4893890;29;20233;-70
2022/03/03 11:34:30;;;;;;;18.97;10.60;;;;;10.70;101347.00;;;;4892961;29;20389;-70
2022/03/03 11:37:19;;;;;;;14.53;9.20;;;;;10.90;101343.00;;;;4896070;29;20733;-67
2022/03/03 11:40:06;;;;;;;14.37;8.83;;;;;10.90;101345.00;;;;4896211;29;20841;-68
2022/03/03 11:42:54;;;;;;;15.57;8.77;;;;;11.30;101345.00;;;;4894451;29;20249;-68
2022/03/03 11:45:49;;;;;;;17.87;9.17;;;;;11.30;101342.00;;;;4904172;29;20309;-69
2022/03/03 11:48:40;;;;;;;17.43;9.33;;;;;11.30;101347.00;;;;4894581;29;20293;-67
2022/03/03 11:51:35;;;;;;;19.47;9.60;;;;;11.40;101343.00;;;;4911965;29;20365;-70
2022/03/03 11:54:42;;;;;;;15.83;8.50;;;;;11.30;101340.00;;;;4901986;29;20245;-68
2022/03/03 11:57:28;;;;;;;13.40;8.97;;;;;11.30;101335.00;;;;4900795;29;20723;-69
2022/03/03 12:00:19;;;;;;;17.93;8.33;;;;;11.40;101328.00;;;;4894390;29;20267;-69
2022/03/03 12:03:07;;;;;;;15.13;8.97;;;;;11.60;101321.00;;;;4902415;29;20989;-69
2022/03/03 12:06:08;;;;;;;14.03;8.60;;;;;11.60;101326.00;;;;4894340;29;20237;-68
2022/03/03 12:08:54;;;;;;;15.17;8.87;;;;;11.80;101327.00;;;;4901857;29;20313;-67
2022/03/03 12:11:40;;;;;;;15.73;8.53;;;;;11.90;101319.00;;;;4909682;29;20358;-68
2022/03/03 12:14:32;;;;;;;13.70;8.80;;;;;12.00;101330.00;;;;4905658;29;20705;-68
2022/03/03 12:17:35;;;;;;;13.03;7.17;;;;;12.20;101318.00;;;;4896575;29;20249;-71
2022/03/03 12:20:32;;;;;;;11.40;6.87;;;;;12.40;101312.00;;;;4896374;29;20229;-69
2022/03/03 12:23:40;;;;;;;15.07;7.70;;;;;12.60;101317.00;;;;4896974;29;21077;-69
2022/03/03 12:26:28;;;;;;;12.93;7.47;;;;;12.70;101304.00;;;;4896057;29;20689;-67
2022/03/03 12:29:29;;;;;;;11.60;7.33;;;;;12.90;101295.00;;;;4904182;29;20379;-67
2022/03/03 12:32:37;;;;;;;10.63;6.80;;;;;12.70;101306.00;;;;4895942;29;20265;-68
2022/03/03 12:35:26;;;;;;;10.13;6.33;;;;;12.90;101294.00;;;;4904983;29;20229;-68
2022/03/03 12:38:13;;;;;;;13.10;7.20;;;;;13.00;101287.00;;;;4906211;29;20234;-68
2022/03/03 12:41:01;;;;;;;11.70;7.27;;;;;13.20;101277.00;;;;4894121;29;20233;-66
2022/03/03 12:43:48;;;;;;;11.80;6.97;;;;;13.30;101292.00;;;;4906750;29;20627;-68
2022/03/03 12:46:34;;;;;;;12.03;6.60;;;;;13.20;101278.00;;;;4903044;29;20591;-66
2022/03/03 12:49:24;;;;;;;13.70;7.50;;;;;13.40;101271.00;;;;4883792;29;20246;-68
2022/03/03 12:52:10;;;;;;;14.50;8.80;;;;;13.60;101272.00;;;;4893946;29;20239;-67
2022/03/03 12:54:57;;;;;;;11.50;7.60;;;;;13.60;101269.00;;;;4893183;29;20343;-67
2022/03/03 12:57:45;;;;;;;14.13;8.27;;;;;13.60;101262.00;;;;4892723;29;20234;-66
2022/03/03 13:00:37;;;;;;;12.67;7.00;;;;;13.70;101269.00;;;;4899614;29;20747;-67
2022/03/03 13:03:24;;;;;;;14.20;8.27;;;;;13.60;101249.00;;;;4902535;29;20235;-66
2022/03/03 13:06:11;;;;;;;12.70;7.73;;;;;13.50;101250.00;;;;4908358;29;20240;-67
2022/03/03 13:09:02;;;;;;;9.27;6.50;;;;;13.40;101261.00;;;;4905453;29;20234;-68
2022/03/03 13:11:55;;;;;;;9.40;6.67;;;;;13.50;101242.00;;;;4904916;29;20225;-68
2022/03/03 13:14:43;;;;;;;11.63;7.33;;;;;13.50;101249.00;;;;4898482;29;20346;-67
2022/03/03 13:17:30;;;;;;;12.03;6.70;;;;;13.70;101256.00;;;;4906205;29;20387;-67
2022/03/03 13:20:16;;;;;;;12.77;6.97;;;;;13.80;101251.00;;;;4907847;29;20229;-69
2022/03/03 13:23:03;;;;;;;10.97;6.70;;;;;13.70;101251.00;;;;4898168;29;20234;-67
2022/03/03 13:26:04;;;;;;;13.07;7.03;;;;;13.50;101240.00;;;;4900031;29;20354;-70
2022/03/03 13:28:53;;;;;;;11.03;6.67;;;;;13.50;101241.00;;;;4892168;29;20245;-69
2022/03/03 13:31:43;;;;;;;9.97;6.30;;;;;13.60;101244.00;;;;4900838;29;20240;-69
2022/03/03 13:34:31;;;;;;;10.60;6.93;;;;;13.60;101243.00;;;;4899746;29;20240;-68
2022/03/03 13:37:18;;;;;;;9.13;6.27;;;;;13.60;101248.00;;;;4905962;29;20721;-69
2022/03/03 13:40:17;;;;;;;8.50;5.93;;;;;13.70;101254.00;;;;4892539;29;20306;-69
2022/03/03 13:43:03;;;;;;;12.87;7.13;;;;;13.60;101261.00;;;;4892142;29;20796;-67
2022/03/03 13:45:49;;;;;;;11.73;6.60;;;;;13.80;101263.00;;;;4899398;29;20226;-70
2022/03/03 13:48:37;;;;;;;10.50;5.83;;;;;13.70;101269.00;;;;4891766;29;20245;-70
2022/03/03 13:51:23;;;;;;;11.43;5.70;;;;;13.70;101268.00;;;;4893727;29;20234;-69